• Join FlightAware (Why Join?)
  • Login
  • US Flag 
10:29AM EDT


 

Airport Tracker/Info


-or-


 

Live Flight TrackerFlight Track Log ✈ N516QS ✈ 08-Aug-2013 ✈ EGNJ / HUY - KBGR

Flight Track Log - Related Links

Times and Time Zones

All times are in EDT time to prevent confusion due to time zone crossing. See the N516QS flight status page for this flight to view local times or setup timezone preferences in your user account.

Time Position Orientation Groundspeed Altitude Reporting Facility
EDT Latitude Longitude Course Direction KTS MPH feet Rate Location/Type
06:10AM 55.4235 -16.8860 288° West  Level Estimated
06:11AM 55.4315 -17.0902 274° West  Level Estimated
06:12AM 55.4393 -17.2944 274° West  Level Estimated
06:13AM 55.4467 -17.4987 274° West  Level Estimated
06:14AM 55.4538 -17.7031 274° West  Level Estimated
06:15AM 55.4605 -17.9075 273° West  Level Estimated
06:16AM 55.4669 -18.1120 273° West  Level Estimated
06:17AM 55.4729 -18.3166 273° West  Level Estimated
06:18AM 55.4786 -18.5212 273° West  Level Estimated
06:19AM 55.4840 -18.7259 273° West  Level Estimated
06:20AM 55.4890 -18.9307 273° West  Level Estimated
06:21AM 55.4937 -19.1355 272° West  Level Estimated
06:22AM 55.4980 -19.3403 272° West  Level Estimated
06:23AM 55.5020 -19.5452 272° West  Level Estimated
06:24AM 55.5057 -19.7502 272° West  Level Estimated
06:25AM 55.5090 -19.9551 272° West  Level Estimated
06:26AM 55.5120 -20.1601 272° West  Level Estimated
06:27AM 55.5146 -20.3652 271° West  Level Estimated
06:28AM 55.5169 -20.5702 271° West  Level Estimated
06:28AM 57.0000 -20.0000 285° West 436 502 43,000  Level ETMS Enhanced Traffic Management System
06:29AM 55.5188 -20.7753 271° West  Level Estimated
06:30AM 55.5204 -20.9804 271° West  Level Estimated
06:31AM 55.5217 -21.1855 271° West  Level Estimated
06:32AM 55.5226 -21.3906 271° West  Level Estimated
06:33AM 55.5232 -21.5958 270° West  Level Estimated
06:34AM 57.2627 -21.9531 283° West 436 502 43,000  Level FlightAware Transoceanic
06:35AM 57.2900 -22.1718 283° West 436 502 43,000  Level FlightAware Transoceanic
06:36AM 57.3169 -22.3908 283° West 436 502 43,000  Level FlightAware Transoceanic
06:37AM 57.3434 -22.6101 283° West 436 502 43,000  Level FlightAware Transoceanic
06:38AM 57.3696 -22.8298 282° West 436 502 43,000  Level FlightAware Transoceanic
06:39AM 57.3954 -23.0497 282° West 436 502 43,000  Level FlightAware Transoceanic
06:40AM 57.4208 -23.2700 282° West 436 502 43,000  Level FlightAware Transoceanic
06:41AM 57.4458 -23.4905 282° West 436 502 43,000  Level FlightAware Transoceanic
06:42AM 57.4704 -23.7114 282° West 436 502 43,000  Level FlightAware Transoceanic
06:43AM 57.4946 -23.9326 281° West 436 502 43,000  Level FlightAware Transoceanic
06:44AM 57.5185 -24.1540 281° West 436 502 43,000  Level FlightAware Transoceanic
06:45AM 57.5419 -24.3757 281° West 436 502 43,000  Level FlightAware Transoceanic
06:46AM 57.5650 -24.5978 281° West 436 502 43,000  Level FlightAware Transoceanic
06:47AM 57.5877 -24.8201 281° West 436 502 43,000  Level FlightAware Transoceanic
06:48AM 57.6100 -25.0427 280° West 436 502 43,000  Level FlightAware Transoceanic
06:49AM 57.6319 -25.2655 280° West 436 502 43,000  Level FlightAware Transoceanic
06:50AM 57.6534 -25.4886 280° West 436 502 43,000  Level FlightAware Transoceanic
06:51AM 57.6745 -25.7120 280° West 436 502 43,000  Level FlightAware Transoceanic
06:52AM 57.6952 -25.9356 280° West 436 502 43,000  Level FlightAware Transoceanic
06:53AM 57.7155 -26.1595 280° West 436 502 43,000  Level FlightAware Transoceanic
06:54AM 57.7355 -26.3836 279° West 436 502 43,000  Level FlightAware Transoceanic
06:55AM 57.7550 -26.6080 279° West 436 502 43,000  Level FlightAware Transoceanic
06:56AM 57.7742 -26.8327 279° West 436 502 43,000  Level FlightAware Transoceanic
06:57AM 57.7929 -27.0575 279° West 436 502 43,000  Level FlightAware Transoceanic
06:58AM 57.8112 -27.2826 279° West 436 502 43,000  Level FlightAware Transoceanic
06:59AM 57.8292 -27.5079 278° West 436 502 43,000  Level FlightAware Transoceanic
07:00AM 57.8467 -27.7335 278° West 436 502 43,000  Level FlightAware Transoceanic
07:01AM 57.8638 -27.9592 278° West 436 502 43,000  Level FlightAware Transoceanic
07:02AM 57.8806 -28.1852 278° West 436 502 43,000  Level FlightAware Transoceanic
07:03AM 57.8969 -28.4114 278° West 436 502 43,000  Level FlightAware Transoceanic
07:04AM 57.9129 -28.6377 277° West 436 502 43,000  Level FlightAware Transoceanic
07:05AM 57.9284 -28.8643 277° West 436 502 43,000  Level FlightAware Transoceanic
07:06AM 57.9435 -29.0911 277° West 436 502 43,000  Level FlightAware Transoceanic
07:07AM 57.9582 -29.3180 277° West 436 502 43,000  Level FlightAware Transoceanic
07:08AM 57.9726 -29.5452 277° West 436 502 43,000  Level FlightAware Transoceanic
07:09AM 57.9865 -29.7725 276° West 436 502 43,000  Level FlightAware Transoceanic
07:10AM 57.9994 -29.9902 276° West  Level FlightAware Approximate
07:11AM 58.0120 -30.2081 276° West  Level FlightAware Approximate
07:12AM 58.0072 -30.1990 274° West  Level FlightAware Approximate
07:13AM 58.0148 -30.4177 274° West  Level FlightAware Approximate
07:13AM 58.0000 -30.0000 274° West 453 521 43,000  Level ETMS Enhanced Traffic Management System
07:14AM 58.0220 -30.6366 274° West  Level FlightAware Approximate
07:15AM 58.0288 -30.8555 273° West  Level FlightAware Approximate
07:16AM 58.0352 -31.0745 273° West  Level FlightAware Approximate
07:17AM 58.0413 -31.2935 273° West  Level FlightAware Approximate
07:18AM 58.0470 -31.5127 273° West  Level FlightAware Approximate
07:19AM 58.0660 -32.1393 272° West 453 521 43,000  Level FlightAware Transoceanic
07:20AM 58.0711 -32.3775 272° West 453 521 43,000  Level FlightAware Transoceanic
07:21AM 58.0758 -32.6157 272° West 453 521 43,000  Level FlightAware Transoceanic
07:22AM 58.0801 -32.8539 272° West 453 521 43,000  Level FlightAware Transoceanic
07:23AM 58.0838 -33.0923 272° West 453 521 43,000  Level FlightAware Transoceanic
07:24AM 58.0872 -33.3306 271° West 453 521 43,000  Level FlightAware Transoceanic
07:25AM 58.0901 -33.5690 271° West 453 521 43,000  Level FlightAware Transoceanic
07:26AM 58.0925 -33.8075 271° West 453 521 43,000  Level FlightAware Transoceanic
07:27AM 58.0945 -34.0459 271° West 453 521 43,000  Level FlightAware Transoceanic
07:28AM 58.0961 -34.2844 271° West 453 521 43,000  Level FlightAware Transoceanic
07:29AM 58.0972 -34.5229 270° West 453 521 43,000  Level FlightAware Transoceanic
07:30AM 58.0979 -34.7615 270° West 453 521 43,000  Level FlightAware Transoceanic
07:31AM 58.0981 -35.0000 270° West 453 521 43,000  Level FlightAware Transoceanic
07:32AM 58.0979 -35.2385 270° West 453 521 43,000  Level FlightAware Transoceanic
07:33AM 58.0972 -35.4771 270° West 453 521 43,000  Level FlightAware Transoceanic
07:34AM 58.0961 -35.7156 269° West 453 521 43,000  Level FlightAware Transoceanic
07:35AM 58.0945 -35.9541 269° West 453 521 43,000  Level FlightAware Transoceanic
07:36AM 58.0925 -36.1925 269° West 453 521 43,000  Level FlightAware Transoceanic
07:37AM 58.0901 -36.4310 269° West 453 521 43,000  Level FlightAware Transoceanic
07:38AM 58.0872 -36.6694 269° West 453 521 43,000  Level FlightAware Transoceanic
07:39AM 58.0838 -36.9077 268° West 453 521 43,000  Level FlightAware Transoceanic
07:40AM 58.0801 -37.1461 268° West 453 521 43,000  Level FlightAware Transoceanic
07:41AM 58.0758 -37.3843 268° West 453 521 43,000  Level FlightAware Transoceanic
07:42AM 58.0711 -37.6225 268° West 453 521 43,000  Level FlightAware Transoceanic
07:43AM 58.0660 -37.8607 268° West 453 521 43,000  Level FlightAware Transoceanic
07:44AM 58.0605 -38.0987 267° West 453 521 43,000  Level FlightAware Transoceanic
07:45AM 58.0545 -38.3367 267° West 453 521 43,000  Level FlightAware Transoceanic
07:46AM 58.0480 -38.5746 267° West 453 521 43,000  Level FlightAware Transoceanic
07:47AM 58.0411 -38.8125 267° West 453 521 43,000  Level FlightAware Transoceanic
07:48AM 58.0338 -39.0502 267° West 453 521 43,000  Level FlightAware Transoceanic
07:49AM 58.0260 -39.2878 266° West 453 521 43,000  Level FlightAware Transoceanic
07:50AM 58.0178 -39.5253 266° West 453 521 43,000  Level FlightAware Transoceanic
07:51AM 58.0091 -39.7627 266° West 453 521 43,000  Level FlightAware Transoceanic
07:52AM 58.0007 -39.9813 266° West  Level FlightAware Approximate
07:53AM 57.9920 -40.1998 266° West  Level FlightAware Approximate
07:54AM 57.9735 -40.1745 254° West  Level FlightAware Approximate
07:55AM 57.9412 -40.3848 254° West  Level FlightAware Approximate
07:55AM 58.0000 -40.0000 254° West 434 499 43,000  Level ETMS Enhanced Traffic Management System
07:56AM 57.9085 -40.5946 254° West  Level FlightAware Approximate
07:57AM 57.8755 -40.8041 254° West  Level FlightAware Approximate
07:58AM 57.8422 -41.0131 253° West  Level FlightAware Approximate
07:59AM 57.8085 -41.2218 253° West  Level FlightAware Approximate
08:00AM 57.7744 -41.4301 253° West  Level FlightAware Approximate
08:01AM 57.6869 -41.9551 252° West 434 499 43,000  Level FlightAware Transoceanic
08:02AM 57.6502 -42.1702 252° West 434 499 43,000  Level FlightAware Transoceanic
08:03AM 57.6132 -42.3849 252° West 434 499 43,000  Level FlightAware Transoceanic
08:04AM 57.5759 -42.5991 252° West 434 499 43,000  Level FlightAware Transoceanic
08:05AM 57.5381 -42.8129 252° West 434 499 43,000  Level FlightAware Transoceanic
08:06AM 57.5000 -43.0262 252° West 434 499 43,000  Level FlightAware Transoceanic
08:07AM 57.4616 -43.2392 251° West 434 499 43,000  Level FlightAware Transoceanic
08:08AM 57.4228 -43.4516 251° West 434 499 43,000  Level FlightAware Transoceanic
08:09AM 57.3836 -43.6636 251° West 434 499 43,000  Level FlightAware Transoceanic
08:10AM 57.3441 -43.8751 251° West 434 499 43,000  Level FlightAware Transoceanic
08:11AM 57.3042 -44.0862 251° West 434 499 43,000  Level FlightAware Transoceanic
08:12AM 57.2640 -44.2969 250° West 434 499 43,000  Level FlightAware Transoceanic
08:13AM 57.2234 -44.5070 250° West 434 499 43,000  Level FlightAware Transoceanic
08:14AM 57.1825 -44.7167 250° West 434 499 43,000  Level FlightAware Transoceanic
08:15AM 57.1413 -44.9260 250° West 434 499 43,000  Level FlightAware Transoceanic
08:16AM 57.0996 -45.1347 250° West 434 499 43,000  Level FlightAware Transoceanic
08:17AM 57.0577 -45.3430 250° West 434 499 43,000  Level FlightAware Transoceanic
08:18AM 57.0154 -45.5509 249° West 434 499 43,000  Level FlightAware Transoceanic
08:19AM 56.9727 -45.7582 249° West 434 499 43,000  Level FlightAware Transoceanic
08:20AM 56.9297 -45.9651 249° West 434 499 43,000  Level FlightAware Transoceanic
08:21AM 56.8864 -46.1715 249° West 434 499 43,000  Level FlightAware Transoceanic
08:22AM 56.8427 -46.3774 249° West 434 499 43,000  Level FlightAware Transoceanic
08:23AM 56.7987 -46.5828 249° West 434 499 43,000  Level FlightAware Transoceanic
08:24AM 56.7543 -46.7878 248° West 434 499 43,000  Level FlightAware Transoceanic
08:25AM 56.7096 -46.9922 248° West 434 499 43,000  Level FlightAware Transoceanic
08:26AM 56.6646 -47.1962 248° West 434 499 43,000  Level FlightAware Transoceanic
08:27AM 56.6193 -47.3997 248° West 434 499 43,000  Level FlightAware Transoceanic
08:28AM 56.5736 -47.6027 248° West 434 499 43,000  Level FlightAware Transoceanic
08:29AM 56.5275 -47.8052 248° West 434 499 43,000  Level FlightAware Transoceanic
08:30AM 56.4812 -48.0073 247° West 434 499 43,000  Level FlightAware Transoceanic
08:31AM 56.4345 -48.2088 247° West 434 499 43,000  Level FlightAware Transoceanic
08:32AM 56.3875 -48.4098 247° West 434 499 43,000  Level FlightAware Transoceanic
08:33AM 56.3402 -48.6103 247° West 434 499 43,000  Level FlightAware Transoceanic
08:34AM 56.2926 -48.8104 247° West 434 499 43,000  Level FlightAware Transoceanic
08:35AM 56.2446 -49.0099 247° West 434 499 43,000  Level FlightAware Transoceanic
08:36AM 56.1963 -49.2089 246° West 434 499 43,000  Level FlightAware Transoceanic
08:37AM 56.1477 -49.4074 246° West 434 499 43,000  Level FlightAware Transoceanic
08:38AM 56.0988 -49.6055 246° West 434 499 43,000  Level FlightAware Transoceanic
08:39AM 56.0495 -49.8030 246° West 434 499 43,000  Level FlightAware Transoceanic
08:40AM 56.0019 -49.9925 246° West  Level FlightAware Approximate
08:41AM 55.9539 -50.1815 246° West  Level FlightAware Approximate
08:41AM 56.0000 -50.0000 250° West 448 516 43,000  Level ETMS Enhanced Traffic Management System
08:42AM 55.9632 -50.1794 250° West  Level FlightAware Approximate
08:43AM 55.9229 -50.3738 250° West  Level FlightAware Approximate
08:44AM 55.8823 -50.5679 250° West  Level FlightAware Approximate
08:45AM 55.8414 -50.7616 249° West  Level FlightAware Approximate
08:46AM 55.8002 -50.9548 249° West  Level FlightAware Approximate
08:47AM 55.6467 -51.6590 249° West 448 516 43,000  Level FlightAware Transoceanic
08:48AM 55.6010 -51.8643 248° West 448 516 43,000  Level FlightAware Transoceanic
08:49AM 55.5549 -52.0691 248° West 448 516 43,000  Level FlightAware Transoceanic
08:50AM 55.5085 -52.2733 248° West 448 516 43,000  Level FlightAware Transoceanic
08:51AM 55.4618 -52.4771 248° West 448 516 43,000  Level FlightAware Transoceanic
08:52AM 55.4147 -52.6805 248° West 448 516 43,000  Level FlightAware Transoceanic
08:53AM 55.3673 -52.8833 248° West 448 516 43,000  Level FlightAware Transoceanic
08:54AM 55.3195 -53.0857 247° West 448 516 43,000  Level FlightAware Transoceanic
08:55AM 55.2715 -53.2875 247° West 448 516 43,000  Level FlightAware Transoceanic
08:56AM 55.2230 -53.4889 247° West 448 516 43,000  Level FlightAware Transoceanic
08:57AM 55.1743 -53.6898 247° West 448 516 43,000  Level FlightAware Transoceanic
08:58AM 55.1252 -53.8901 247° West 448 516 43,000  Level FlightAware Transoceanic
08:59AM 55.0758 -54.0900 247° West 448 516 43,000  Level FlightAware Transoceanic
09:00AM 55.0261 -54.2894 246° West 448 516 43,000  Level FlightAware Transoceanic
09:01AM 54.9760 -54.4883 246° West 448 516 43,000  Level FlightAware Transoceanic
09:02AM 54.9257 -54.6867 246° West 448 516 43,000  Level FlightAware Transoceanic
09:03AM 54.8750 -54.8846 246° West 448 516 43,000  Level FlightAware Transoceanic
09:04AM 54.8239 -55.0820 246° West 448 516 43,000  Level FlightAware Transoceanic
09:04AM 54.8667 -54.8667 226° Southwest 460 529 43,000  Level Moncton Center
09:05AM 54.7726 -55.2789 246° West 448 516 43,000  Level FlightAware Transoceanic
09:05AM 54.8000 -55.0833 242° Southwest 460 529 43,000  Level Moncton Center
09:06AM 54.7209 -55.4754 245° Southwest 448 516 43,000  Level FlightAware Transoceanic
09:06AM 54.7667 -55.2667 253° West 460 529 43,000  Level Moncton Center
09:07AM 54.6690 -55.6713 245° Southwest 448 516 43,000  Level FlightAware Transoceanic
09:07AM 54.7167 -55.4833 248° West 460 529 43,000  Level Moncton Center
09:08AM 54.5860 -55.8192 226° Southwest  Level Estimated
09:08AM 54.6333 -55.6667 232° Southwest 460 529 43,000  Level Moncton Center
09:09AM 54.5029 -55.9665 226° Southwest  Level Estimated
09:09AM 54.5500 -55.8333 229° Southwest 460 529 43,000  Level Moncton Center
09:10AM 54.4196 -56.1132 226° Southwest  Level Estimated
09:10AM 54.4667 -56.0000 229° Southwest 460 529 43,000  Level Moncton Center
09:11AM 54.3667 -56.1333 218° Southwest 470 541 43,000  Level Moncton Center
09:12AM 54.2833 -56.2833 226° Southwest 460 529 43,000  Level Moncton Center
09:13AM 54.1833 -56.4500 224° Southwest 460 529 43,000  Level Moncton Center
09:14AM 54.1000 -56.6167 230° Southwest 460 529 43,000  Level Moncton Center
09:15AM 54.0000 -56.7667 221° Southwest 460 529 43,000  Level Moncton Center
09:16AM 53.9167 -56.9333 230° Southwest 460 529 43,000  Level Moncton Center
09:17AM 53.8333 -57.0833 227° Southwest 460 529 43,000  Level Moncton Center
09:18AM 53.7333 -57.2500 225° Southwest 460 529 43,000  Level Moncton Center
09:19AM 53.6333 -57.3667 215° Southwest 460 529 43,000  Level Moncton Center
09:20AM 53.5667 -57.5167 233° Southwest 460 529 43,000  Level Moncton Center
09:21AM 53.4500 -57.6833 220° Southwest 460 529 43,000  Level Moncton Center
09:22AM 53.3833 -57.8333 233° Southwest 460 529 43,000  Level Moncton Center
09:23AM 53.2833 -57.9833 222° Southwest 460 529 43,000  Level Moncton Center
09:24AM 53.2000 -58.1333 227° Southwest 460 529 43,000  Level Moncton Center
09:25AM 53.1000 -58.2667 219° Southwest 460 529 43,000  Level Moncton Center
09:26AM 53.0167 -58.4167 227° Southwest 460 529 43,000  Level Moncton Center
09:27AM 52.9167 -58.5667 222° Southwest 460 529 43,000  Level Moncton Center
09:28AM 52.8167 -58.7167 222° Southwest 460 529 43,000  Level Moncton Center
09:29AM 52.7333 -58.8667 227° Southwest 460 529 43,000  Level Moncton Center
09:30AM 52.6333 -59.0167 222° Southwest 460 529 43,000  Level Moncton Center
09:31AM 52.5333 -59.1667 222° Southwest 460 529 43,000  Level Moncton Center
09:32AM 52.4667 -59.2833 227° Southwest 460 529 43,000  Level Moncton Center
09:33AM 52.3667 -59.4333 223° Southwest 450 518 43,000  Level Moncton Center
09:34AM 52.2667 -59.5833 223° Southwest 460 529 43,000  Level Moncton Center
09:35AM 52.1833 -59.7333 228° Southwest 460 529 43,000  Level Moncton Center
09:36AM 52.0833 -59.8833 223° Southwest 460 529 43,000  Level Moncton Center
09:37AM 51.9833 -60.0167 219° Southwest 460 529 43,000  Level Moncton Center
09:38AM 51.9000 -60.1667 228° Southwest 460 529 43,000  Level Moncton Center
09:39AM 51.8000 -60.2833 216° Southwest 460 529 43,000  Level Moncton Center
09:40AM 51.7000 -60.4333 223° Southwest 460 529 43,000  Level Moncton Center
09:41AM 51.6000 -60.5667 220° Southwest 460 529 43,000  Level Moncton Center
09:42AM 51.5167 -60.7167 228° Southwest 460 529 43,000  Level Moncton Center
09:43AM 51.4333 -60.8500 225° Southwest 460 529 43,000  Level Moncton Center
09:44AM 51.3167 -61.0000 219° Southwest 460 529 43,000  Level Moncton Center
09:45AM 51.2333 -61.1333 225° Southwest 460 529 43,000  Level Moncton Center
09:46AM 51.1333 -61.2833 223° Southwest 460 529 43,000  Level Moncton Center
09:47AM 51.0500 -61.3833 217° Southwest 460 529 43,000  Level Moncton Center
09:48AM 50.9500 -61.5333 223° Southwest 450 518 43,000  Level Moncton Center
09:49AM 50.8500 -61.6667 220° Southwest 460 529 43,000  Level Moncton Center
09:50AM 50.7667 -61.8000 225° Southwest 450 518 43,000  Level Moncton Center
09:51AM 50.6500 -61.9333 216° Southwest 450 518 43,000  Level Moncton Center
09:52AM 50.5667 -62.0500 222° Southwest 440 506 43,000  Level Moncton Center
09:53AM 50.4667 -62.1833 220° Southwest 450 518 43,000  Level Moncton Center
09:54AM 50.3833 -62.3167 226° Southwest 450 518 43,000  Level Moncton Center
09:55AM 50.3000 -62.4333 222° Southwest 450 518 43,000  Level Moncton Center
09:56AM 50.2000 -62.5667 221° Southwest 450 518 43,000  Level Moncton Center
09:57AM 50.1000 -62.7000 221° Southwest 460 529 43,000  Level Moncton Center
09:58AM 50.0000 -62.8333 221° Southwest 450 518 43,000  Level Moncton Center
09:59AM 49.9167 -62.9333 218° Southwest 450 518 43,000  Level Moncton Center
10:00AM 49.8167 -63.0667 221° Southwest 450 518 43,000  Level Moncton Center
10:01AM 49.7167 -63.2000 221° Southwest 450 518 43,000  Level Moncton Center
10:02AM 49.6167 -63.3333 221° Southwest 440 506 43,000  Level Moncton Center
10:03AM 49.5167 -63.4667 221° Southwest 460 529 43,000  Level Moncton Center
10:04AM 49.4167 -63.5667 213° Southwest 450 518 43,000  Level Moncton Center
10:05AM 49.3167 -63.7000 221° Southwest 450 518 43,000  Level Moncton Center
10:06AM 49.2333 -63.8333 226° Southwest 450 518 43,000  Level Moncton Center
10:07AM 49.1333 -63.9667 221° Southwest 450 518 43,000  Level Moncton Center
10:08AM 49.0333 -64.0833 217° Southwest 450 518 43,000  Level Moncton Center
10:09AM 48.9500 -64.2000 223° Southwest 440 506 43,000  Level Moncton Center
10:10AM 48.8500 -64.3167 218° Southwest 440 506 43,000  Level Moncton Center
10:11AM 48.7500 -64.4167 213° Southwest 450 518 43,000  Level Moncton Center
10:12AM 48.6500 -64.5500 221° Southwest 450 518 43,000  Level Moncton Center
10:13AM 48.5667 -64.6833 227° Southwest 440 506 43,000  Level Moncton Center
10:14AM 48.4667 -64.8000 218° Southwest 430 495 43,000  Level Moncton Center
10:15AM 48.3667 -64.9000 214° Southwest 430 495 43,000  Level Moncton Center
10:16AM 48.2833 -65.0333 227° Southwest 440 506 43,000  Level Moncton Center
10:17AM 48.1833 -65.1333 214° Southwest 440 506 43,000  Level Moncton Center
10:18AM 48.0833 -65.2500 218° Southwest 440 506 43,000  Level Moncton Center
10:19AM 47.9833 -65.3667 218° Southwest 450 518 43,000  Level Moncton Center
10:20AM 47.9000 -65.4667 219° Southwest 440 506 43,000  Level Moncton Center
10:21AM 47.8000 -65.6000 222° Southwest 440 506 43,000  Level Moncton Center
10:22AM 47.7167 -65.7167 223° Southwest 450 518 43,000  Level Moncton Center
10:23AM 47.6000 -65.8333 214° Southwest 450 518 43,000  Level Moncton Center
10:24AM 47.5000 -65.9333 214° Southwest 440 506 43,000  Level Moncton Center
10:25AM 47.4000 -66.0500 218° Southwest 440 506 43,000  Level Moncton Center
10:26AM 47.3167 -66.1833 227° Southwest 440 506 43,000  Level Moncton Center
10:27AM 47.2167 -66.3000 218° Southwest 440 506 43,000  Level Moncton Center
10:28AM 47.1167 -66.3833 210° Southwest 430 495 43,000  Level Moncton Center
10:29AM 47.0167 -66.5167 222° Southwest 430 495 43,000  Level Moncton Center
10:30AM 46.9333 -66.6000 214° Southwest 430 495 43,000  Level Moncton Center
10:31AM 46.8333 -66.7167 219° Southwest 430 495 43,000  Level Moncton Center
10:32AM 46.7333 -66.8167 214° Southwest 430 495 43,000 -600 Level Moncton Center
10:33AM 46.6500 -66.9333 224° Southwest 430 495 41,800 -1,680 Descending Moncton Center
10:34AM 46.5500 -67.0500 219° Southwest 450 518 39,700 -2,040 Descending Moncton Center
10:35AM 46.4500 -67.1500 215° Southwest 450 518 37,800 -2,040 Descending Moncton Center
10:36AM 46.3333 -67.2500 211° Southwest 440 506 35,700 -2,100 Descending Moncton Center
10:37AM 46.2500 -67.3667 224° Southwest 430 495 33,700 -2,100 Descending Moncton Center
10:38AM 46.1500 -67.4667 215° Southwest 430 495 31,600 -2,040 Descending Moncton Center
10:39AM 46.0667 -67.5833 224° Southwest 440 506 29,700 -1,320 Descending Moncton Center
10:40AM 45.9667 -67.7000 219° Southwest 440 506 29,000 -360 Descending Moncton Center
10:41AM 45.8500 -67.7833 206° Southwest 440 506 29,000 -900 Level Moncton Center
10:42AM 45.7500 -67.9000 219° Southwest 430 495 27,300 -1,800 Descending Moncton Center
10:43AM 45.6667 -68.0167 224° Southwest 440 506 25,500 -2,160 Descending Moncton Center
10:44AM 45.5833 -68.1000 215° Southwest 420 483 23,000 -2,520 Descending Moncton Center
10:45AM 45.4833 -68.1833 210° Southwest 410 472 20,500 -2,400 Descending Moncton Center
10:46AM 45.4000 -68.2833 220° Southwest 390 449 18,300 -2,280 Descending Moncton Center
10:47AM 45.3167 -68.3667 215° Southwest 380 437 16,000 -2,220 Descending Moncton Center
10:48AM 45.2333 -68.4667 220° Southwest 360 414 13,900 -2,040 Descending Moncton Center
10:49AM 45.1833 -68.5500 230° Southwest 320 368 12,000 -1,860 Descending Moncton Center
10:50AM 45.1667 -68.6500 257° West 290 334 10,200 -1,680 Descending Moncton Center
10:51AM 45.1333 -68.7333 240° Southwest 270 311 8,700 -1,860 Descending Moncton Center
10:52AM 45.0778 -68.8242 229° Southwest 253 291 5,700 -2,160 Descending Boston Center
10:53AM 45.0275 -68.8833 220° Southwest 248 285 3,500 -1,560 Descending Boston Center
10:54AM 44.9875 -68.9356 223° Southwest 231 266 2,600 -540 Descending Boston Center
10:55AM 44.9594 -68.9783 227° Southwest 189 217 2,500 -60 Descending Boston Center
10:56AM 44.9217 -68.9689 170° South 130 150 2,500 -60 Level Boston Center
10:57AM 44.8856 -68.9417 152° Southeast 130 150 2,400 -600 Descending Boston Center
10:58AM 44.8572 -68.9053 138° Southeast 136 157 1,300 -840 Descending Boston Center
10:59AM 44.8375 -68.8742 132° Southeast 130 150 800 -540 Descending Boston Center
11:00AM 44.8094 -68.8408 140° Southeast 118 136 300 -540 Descending Boston Center
11:02AM 44.8074 -68.8281 133° Southeast  Level Estimated
11:09AM 44.8074 -68.8281 133° Southeast  Level Estimated